Time;durP1;ratioP1;P1;durP2;ratioP2;P2;SDS_P1;SDS_P2;PMS_P1;PMS_P2;Temp;Humidity;BMP_temperature;BMP_pressure;BME280_temperature;BME280_humidity;BME280_pressure;Samples;Min_cycle;Max_cycle;Signal;HPM_P1;HPM_P2
2021/11/30 00:01:08;;;;;;;;;;;;;;;17.15;54.75;99913.16;143741;973;45027;-81
2021/11/30 00:03:36;;;;;;;;;;;;;;;17.18;53.68;99917.25;143738;982;45938;-81
2021/11/30 00:06:02;;;;;;;;;;;;;;;17.11;53.50;99928.34;143734;975;47004;-79
2021/11/30 00:08:32;;;;;;;;;;;;;;;17.06;53.32;99926.41;143740;984;45014;-80
2021/11/30 00:10:59;;;;;;;;;;;;;;;17.03;53.62;99942.41;143743;978;45015;-80
2021/11/30 00:13:26;;;;;;;;;;;;;;;17.07;54.11;99928.03;143738;981;45013;-81
2021/11/30 00:15:53;;;;;;;;;;;;;;;17.08;53.40;99950.56;143741;976;46004;-82
2021/11/30 00:18:19;;;;;;;;;;;;;;;17.11;53.66;99934.59;143739;984;45015;-80
2021/11/30 00:20:46;;;;;;;;;;;;;;;17.13;54.25;99945.97;143742;977;45014;-80
2021/11/30 00:23:12;;;;;;;;;;;;;;;17.11;53.53;99929.16;143741;982;46012;-80
2021/11/30 00:25:39;;;;;;;;;;;;;;;17.13;54.59;99915.31;143736;976;46004;-81
2021/11/30 00:28:06;;;;;;;;;;;;;;;17.10;54.60;99964.69;143739;983;45934;-79
2021/11/30 00:30:32;;;;;;;;;;;;;;;17.07;53.96;99974.16;143738;978;48002;-80
2021/11/30 00:32:59;;;;;;;;;;;;;;;17.05;53.67;99948.34;143737;982;45938;-80
2021/11/30 00:35:26;;;;;;;;;;;;;;;17.09;53.61;99960.34;143737;975;47004;-76
2021/11/30 00:37:52;;;;;;;;;;;;;;;17.07;55.03;99925.34;143739;983;45017;-80
2021/11/30 00:40:18;;;;;;;;;;;;;;;17.06;52.43;99942.69;143740;978;46002;-79
2021/11/30 00:42:45;;;;;;;;;;;;;;;17.01;52.67;99920.13;143734;981;46938;-81
2021/11/30 00:45:15;;;;;;;;;;;;;;;16.93;54.31;99940.41;143739;976;46004;-80
2021/11/30 00:47:53;;;;;;;;;;;;;;;16.88;53.76;99949.28;143735;984;48010;-80
2021/11/30 00:50:21;;;;;;;;;;;;;;;16.92;52.99;99953.13;143742;977;45014;-79
2021/11/30 00:52:47;;;;;;;;;;;;;;;16.92;51.59;99984.88;143740;982;45015;-79
2021/11/30 00:55:14;;;;;;;;;;;;;;;16.92;50.89;99982.97;143737;976;46944;-80
2021/11/30 00:57:40;;;;;;;;;;;;;;;16.86;47.02;100008.41;143733;983;46011;-83
2021/11/30 01:00:07;;;;;;;;;;;;;;;16.90;46.49;99990.53;143742;978;45014;-79
2021/11/30 01:02:34;;;;;;;;;;;;;;;16.87;47.58;100022.78;143740;982;45013;-79
2021/11/30 01:05:00;;;;;;;;;;;;;;;16.88;47.93;100038.00;143738;975;46004;-79
2021/11/30 01:07:27;;;;;;;;;;;;;;;16.88;48.02;100057.78;143740;984;45014;-80
2021/11/30 01:09:53;;;;;;;;;;;;;;;16.85;48.94;100043.94;143740;978;46002;-81
2021/11/30 01:12:23;;;;;;;;;;;;;;;16.82;50.25;100083.25;143739;981;45938;-80
2021/11/30 01:14:49;;;;;;;;;;;;;;;16.78;43.12;100063.13;143739;976;45943;-80
2021/11/30 01:17:15;;;;;;;;;;;;;;;16.75;43.14;100033.81;143739;984;45934;-79
2021/11/30 01:19:42;;;;;;;;;;;;;;;16.71;45.66;100029.97;143742;977;45014;-78
2021/11/30 01:22:08;;;;;;;;;;;;;;;16.72;43.45;100045.16;143740;982;45012;-80
2021/11/30 01:24:34;;;;;;;;;;;;;;;16.65;44.18;100057.03;143740;976;45017;-80
2021/11/30 01:27:01;;;;;;;;;;;;;;;16.59;43.31;100076.22;143739;983;45934;-80
2021/11/30 01:29:27;;;;;;;;;;;;;;;16.64;43.53;100116.94;143742;978;45014;-79
2021/11/30 01:31:53;;;;;;;;;;;;;;;16.60;44.27;100107.66;143736;982;48012;-78
2021/11/30 01:34:20;;;;;;;;;;;;;;;16.67;43.87;100117.25;143740;976;45016;-79
2021/11/30 01:36:47;;;;;;;;;;;;;;;16.67;42.86;100121.84;143739;984;45934;-78
2021/11/30 01:39:14;;;;;;;;;;;;;;;16.67;43.44;100130.81;143741;978;45015;-81
2021/11/30 01:41:42;;;;;;;;;;;;;;;16.61;40.98;100120.97;143739;981;45938;-79
2021/11/30 01:44:21;;;;;;;;;;;;;;;16.48;40.79;100126.78;143740;976;45016;-80
2021/11/30 01:49:36;;;;;;;;;;;;;;;16.35;40.37;100082.72;143739;981;46014;-80
2021/11/30 01:52:07;;;;;;;;;;;;;;;16.24;41.03;100091.00;143741;978;45012;-79
2021/11/30 01:54:34;;;;;;;;;;;;;;;16.20;40.38;100096.91;143738;980;46004;-80
2021/11/30 01:57:00;;;;;;;;;;;;;;;16.19;42.91;100125.09;143740;979;45938;-80
2021/11/30 01:59:26;;;;;;;;;;;;;;;16.24;42.22;100118.09;143743;982;46002;-79
2021/11/30 02:01:53;;;;;;;;;;;;;;;16.29;41.45;100123.56;143740;978;46012;-79
2021/11/30 02:04:19;;;;;;;;;;;;;;;16.24;42.18;100097.22;143738;979;46005;-80
2021/11/30 02:06:46;;;;;;;;;;;;;;;16.21;42.08;100078.75;143740;980;46010;-81
2021/11/30 02:09:12;;;;;;;;;;;;;;;16.17;42.43;100075.75;143741;982;47002;-80
2021/11/30 02:11:38;;;;;;;;;;;;;;;16.17;42.69;100053.22;143726;977;51013;-80
2021/11/30 02:14:05;;;;;;;;;;;;;;;16.18;42.64;100061.13;143739;980;46004;-79
2021/11/30 02:16:31;;;;;;;;;;;;;;;16.19;42.57;100068.19;143739;980;48002;-80
2021/11/30 02:19:00;;;;;;;;;;;;;;;16.20;42.29;100077.13;143743;981;45014;-80
2021/11/30 02:21:32;;;;;;;;;;;;;;;16.24;41.90;100082.88;143738;978;46012;-81
2021/11/30 02:23:59;;;;;;;;;;;;;;;16.23;41.33;100087.47;143740;980;45016;-80
2021/11/30 02:26:26;;;;;;;;;;;;;;;16.25;41.27;100088.03;143737;979;46011;-81
2021/11/30 02:28:55;;;;;;;;;;;;;;;16.26;41.05;100102.38;143742;982;45014;-79
2021/11/30 02:31:22;;;;;;;;;;;;;;;16.24;40.94;100099.13;143739;978;45942;-79
2021/11/30 02:33:48;;;;;;;;;;;;;;;16.28;41.02;100103.78;143740;980;45016;-80
2021/11/30 02:36:26;;;;;;;;;;;;;;;16.24;41.04;100116.19;143741;980;45014;-81
2021/11/30 02:38:53;;;;;;;;;;;;;;;16.28;40.66;100105.66;143744;982;45010;-80
2021/11/30 02:41:20;;;;;;;;;;;;;;;16.35;41.44;100112.53;143738;978;46012;-80
2021/11/30 02:43:46;;;;;;;;;;;;;;;16.36;40.73;100116.06;143740;980;45016;-79
2021/11/30 02:46:27;;;;;;;;;;;;;;;16.38;40.31;100119.34;143739;980;45938;-81
2021/11/30 02:48:53;;;;;;;;;;;;;;;16.38;38.98;100116.66;143742;981;45014;-78
2021/11/30 02:51:20;;;;;;;;;;;;;;;16.41;40.28;100118.84;143739;984;45927;-81
2021/11/30 02:53:46;;;;;;;;;;;;;;;16.43;40.79;100113.97;143740;984;45013;-79
2021/11/30 02:56:13;;;;;;;;;;;;;;;16.42;40.31;100114.25;143736;985;47008;-79
2021/11/30 02:58:39;;;;;;;;;;;;;;;16.49;40.68;100129.25;143739;974;46000;-79
2021/11/30 03:01:07;;;;;;;;;;;;;;;16.55;39.89;100137.44;143735;984;47932;-80
2021/11/30 03:03:34;;;;;;;;;;;;;;;16.57;40.25;100143.44;143739;983;45932;-80
2021/11/30 03:06:00;;;;;;;;;;;;;;;16.56;39.26;100148.03;143743;985;45010;-79
2021/11/30 03:08:26;;;;;;;;;;;;;;;16.59;39.82;100157.56;143741;986;46000;-82
2021/11/30 03:10:53;;;;;;;;;;;;;;;16.57;41.23;100165.13;143740;983;45011;-80
2021/11/30 03:13:19;;;;;;;;;;;;;;;16.56;40.84;100171.63;143738;984;47002;-80
2021/11/30 03:15:45;;;;;;;;;;;;;;;16.52;40.81;100182.13;143737;985;48002;-79
2021/11/30 03:18:13;;;;;;;;;;;;;;;16.54;39.62;100169.13;143742;985;45010;-79
2021/11/30 03:20:39;;;;;;;;;;;;;;;16.47;39.88;100155.78;143737;984;46010;-79
2021/11/30 03:23:05;;;;;;;;;;;;;;;16.32;40.20;100156.41;143737;984;47002;-79
2021/11/30 03:25:31;;;;;;;;;;;;;;;16.31;40.10;100160.19;143736;983;46009;-79
2021/11/30 03:27:58;;;;;;;;;;;;;;;16.33;41.28;100147.19;143737;986;47000;-81
2021/11/30 03:30:25;;;;;;;;;;;;;;;16.39;41.22;100128.28;143740;984;45010;-80
2021/11/30 03:35:35;;;;;;;;;;;;;;;16.42;41.32;100125.88;143740;984;45010;-80
2021/11/30 03:38:02;;;;;;;;;;;;;;;16.43;40.73;100118.59;143742;984;45010;-79
2021/11/30 03:40:28;;;;;;;;;;;;;;;16.41;40.92;100121.56;143733;984;47010;-79
2021/11/30 03:42:54;;;;;;;;;;;;;;;16.45;41.08;100138.13;143736;980;45935;-79
2021/11/30 03:45:20;;;;;;;;;;;;;;;16.43;41.73;100134.84;143739;986;45930;-79
2021/11/30 03:47:46;;;;;;;;;;;;;;;16.41;41.20;100137.00;143737;984;46000;-79
2021/11/30 03:50:13;;;;;;;;;;;;;;;16.41;41.37;100140.53;143740;985;45010;-79
2021/11/30 03:52:39;;;;;;;;;;;;;;;16.37;41.38;100136.69;143738;980;46002;-80
2021/11/30 03:55:06;;;;;;;;;;;;;;;16.30;41.06;100145.00;143738;984;46009;-79
2021/11/30 03:57:32;;;;;;;;;;;;;;;16.26;41.38;100152.00;143742;984;45010;-80
2021/11/30 03:59:59;;;;;;;;;;;;;;;16.25;41.72;100160.34;143737;984;46010;-81
2021/11/30 04:02:25;;;;;;;;;;;;;;;16.20;42.29;100166.53;143739;980;46002;-80
2021/11/30 04:04:51;;;;;;;;;;;;;;;16.18;41.65;100165.94;143739;986;45929;-80
2021/11/30 04:07:18;;;;;;;;;;;;;;;16.18;41.42;100161.38;143739;984;46000;-80
2021/11/30 04:09:45;;;;;;;;;;;;;;;16.21;41.91;100151.91;143739;985;45928;-82
2021/11/30 04:12:11;;;;;;;;;;;;;;;16.20;41.95;100170.06;143736;979;47002;-79
2021/11/30 04:14:38;;;;;;;;;;;;;;;16.14;41.03;100171.06;143740;986;45010;-80
2021/11/30 04:17:06;;;;;;;;;;;;;;;16.16;40.53;100179.75;143741;984;46000;-78
2021/11/30 04:19:32;;;;;;;;;;;;;;;16.18;40.87;100185.75;143739;986;45928;-79
2021/11/30 04:21:59;;;;;;;;;;;;;;;16.27;41.15;100185.31;143721;980;47002;-80
2021/11/30 04:24:25;;;;;;;;;;;;;;;16.19;42.76;100191.97;143740;979;45010;-79
2021/11/30 04:26:51;;;;;;;;;;;;;;;16.16;43.57;100187.88;143743;983;45010;-78
2021/11/30 04:29:18;;;;;;;;;;;;;;;16.16;44.08;100195.19;143737;986;46010;-80
2021/11/30 04:31:44;;;;;;;;;;;;;;;16.06;43.82;100202.09;143740;980;45012;-80
2021/11/30 04:34:10;;;;;;;;;;;;;;;16.03;43.62;100204.50;143738;986;46000;-81
2021/11/30 04:36:36;;;;;;;;;;;;;;;15.96;44.41;100204.66;143738;984;47000;-79
2021/11/30 04:39:04;;;;;;;;;;;;;;;15.98;44.00;100204.41;143740;984;45011;-79
2021/11/30 04:41:30;;;;;;;;;;;;;;;15.97;43.63;100198.19;143734;979;47002;-79
2021/11/30 04:43:57;;;;;;;;;;;;;;;15.94;43.94;100197.84;143740;986;45010;-79
2021/11/30 04:46:28;;;;;;;;;;;;;;;15.89;44.28;100185.03;143741;984;45011;-80
2021/11/30 04:49:05;;;;;;;;;;;;;;;15.87;45.13;100192.59;143739;979;45928;-79
2021/11/30 04:51:32;;;;;;;;;;;;;;;15.85;44.38;100216.34;143738;980;46002;-78
2021/11/30 04:53:59;;;;;;;;;;;;;;;15.87;43.88;100223.22;143740;986;45011;-79
2021/11/30 04:56:25;;;;;;;;;;;;;;;15.89;43.42;100220.25;143723;983;55000;-79
2021/11/30 04:58:51;;;;;;;;;;;;;;;15.92;43.83;100219.75;143740;986;45010;-78
2021/11/30 05:01:18;;;;;;;;;;;;;;;15.90;44.12;100217.28;143740;980;45013;-79
2021/11/30 05:03:45;;;;;;;;;;;;;;;15.91;43.23;100212.72;143740;982;45010;-80
2021/11/30 05:06:12;;;;;;;;;;;;;;;15.93;43.06;100217.88;143741;984;46000;-80
2021/11/30 05:08:39;;;;;;;;;;;;;;;15.96;42.96;100215.50;143740;975;45025;-80
2021/11/30 05:11:05;;;;;;;;;;;;;;;15.89;43.17;100215.66;143740;979;45012;-80
2021/11/30 05:13:31;;;;;;;;;;;;;;;15.83;44.25;100223.91;143740;986;45010;-81
2021/11/30 05:15:58;;;;;;;;;;;;;;;15.84;43.82;100231.81;143742;984;45011;-80
2021/11/30 05:18:24;;;;;;;;;;;;;;;15.83;44.38;100240.16;143739;985;45928;-81
2021/11/30 05:20:51;;;;;;;;;;;;;;;15.77;44.58;100231.97;143735;980;47002;-78
2021/11/30 05:23:26;;;;;;;;;;;;;;;15.64;44.60;100247.69;143740;986;45011;-82
2021/11/30 05:25:53;;;;;;;;;;;;;;;15.65;44.82;100254.75;143739;983;47000;-80
2021/11/30 05:28:20;;;;;;;;;;;;;;;15.63;44.52;100254.97;143735;986;49010;-80
2021/11/30 05:30:46;;;;;;;;;;;;;;;15.63;44.91;100260.41;143738;963;46011;-78
2021/11/30 05:33:13;;;;;;;;;;;;;;;15.63;45.18;100259.59;143739;985;45930;-81
2021/11/30 05:35:41;;;;;;;;;;;;;;;15.60;45.29;100258.19;143738;984;47010;-81
2021/11/30 05:38:07;;;;;;;;;;;;;;;15.61;45.31;100257.13;143738;986;46011;-79
2021/11/30 05:40:34;;;;;;;;;;;;;;;15.61;44.66;100263.34;143740;979;45012;-79
2021/11/30 05:43:00;;;;;;;;;;;;;;;15.64;41.85;100264.75;143740;986;45929;-79
2021/11/30 05:45:26;;;;;;;;;;;;;;;15.65;41.29;100258.25;143741;984;46000;-80
2021/11/30 05:47:53;;;;;;;;;;;;;;;15.77;41.12;100266.31;143739;985;45928;-81
2021/11/30 05:50:20;;;;;;;;;;;;;;;15.85;40.70;100270.53;143740;980;45012;-80
2021/11/30 05:52:46;;;;;;;;;;;;;;;15.92;41.83;100284.75;143737;984;46003;-79
2021/11/30 05:55:12;;;;;;;;;;;;;;;15.94;42.57;100303.47;143742;983;45010;-79
2021/11/30 05:57:40;;;;;;;;;;;;;;;15.97;43.13;100305.69;143738;985;46010;-81
2021/11/30 06:00:08;;;;;;;;;;;;;;;16.00;43.37;100308.72;143740;980;45013;-81
2021/11/30 06:02:51;;;;;;;;;;;;;;;15.99;43.75;100309.78;143740;984;45010;-81
2021/11/30 06:05:17;;;;;;;;;;;;;;;15.98;43.43;100321.69;143742;982;45010;-80
2021/11/30 06:07:43;;;;;;;;;;;;;;;16.06;43.33;100315.06;143739;985;45928;-82
2021/11/30 06:10:09;;;;;;;;;;;;;;;16.06;43.75;100313.16;143735;979;47002;-81
2021/11/30 06:12:36;;;;;;;;;;;;;;;16.10;43.07;100318.09;143739;985;45929;-82
2021/11/30 06:15:03;;;;;;;;;;;;;;;16.05;43.40;100319.66;143742;984;45011;-82
2021/11/30 06:17:30;;;;;;;;;;;;;;;16.08;40.95;100320.22;143740;985;45011;-82
2021/11/30 06:19:56;;;;;;;;;;;;;;;16.16;42.70;100312.53;143740;980;45012;-81
2021/11/30 06:22:22;;;;;;;;;;;;;;;16.16;43.12;100304.41;143735;984;47008;-80
2021/11/30 06:24:48;;;;;;;;;;;;;;;16.15;43.85;100305.47;143742;983;45010;-81
2021/11/30 06:27:14;;;;;;;;;;;;;;;16.11;43.08;100311.63;143740;986;45928;-83
2021/11/30 06:29:41;;;;;;;;;;;;;;;16.08;43.22;100306.69;143737;980;47002;-81
2021/11/30 06:32:07;;;;;;;;;;;;;;;16.06;43.10;100304.25;143738;985;46009;-81
2021/11/30 06:34:34;;;;;;;;;;;;;;;16.05;43.94;100319.66;143742;984;45010;-80
2021/11/30 06:37:00;;;;;;;;;;;;;;;16.08;43.63;100314.81;143740;985;46002;-81
2021/11/30 06:39:26;;;;;;;;;;;;;;;16.11;43.76;100331.41;143741;980;45012;-81
2021/11/30 06:41:53;;;;;;;;;;;;;;;16.11;43.82;100319.75;143736;984;47008;-82
2021/11/30 06:44:19;;;;;;;;;;;;;;;16.12;42.76;100319.50;143742;984;45010;-81
2021/11/30 06:46:45;;;;;;;;;;;;;;;16.14;41.39;100325.50;143739;985;45928;-80
2021/11/30 06:49:12;;;;;;;;;;;;;;;16.22;41.00;100326.97;143737;980;46002;-81
2021/11/30 06:51:38;;;;;;;;;;;;;;;16.28;40.52;100338.72;143740;985;45010;-81
2021/11/30 06:54:04;;;;;;;;;;;;;;;16.32;42.01;100335.28;143743;983;45010;-82
2021/11/30 06:56:31;;;;;;;;;;;;;;;16.36;41.12;100341.81;143740;985;45014;-82
2021/11/30 06:58:57;;;;;;;;;;;;;;;16.40;40.83;100346.75;143740;980;45012;-81
2021/11/30 07:01:23;;;;;;;;;;;;;;;16.45;40.90;100354.97;143737;985;46930;-81
2021/11/30 07:03:50;;;;;;;;;;;;;;;16.48;40.63;100360.72;143742;984;45010;-81
2021/11/30 07:06:23;;;;;;;;;;;;;;;16.57;41.01;100369.25;143737;984;47002;-81
2021/11/30 07:09:04;;;;;;;;;;;;;;;16.59;40.20;100366.31;143736;980;47002;-80
2021/11/30 07:14:22;;;;;;;;;;;;;;;16.71;40.18;100380.59;143733;986;49000;-79
2021/11/30 07:16:49;;;;;;;;;;;;;;;16.74;41.22;100381.97;143733;983;47010;-81
2021/11/30 07:19:16;;;;;;;;;;;;;;;16.79;40.48;100382.06;143740;984;46002;-82
2021/11/30 07:21:42;;;;;;;;;;;;;;;16.83;40.41;100383.22;143740;986;45934;-81
2021/11/30 07:24:09;;;;;;;;;;;;;;;16.91;40.33;100387.41;143738;986;46000;-82
2021/11/30 07:26:36;;;;;;;;;;;;;;;17.00;40.69;100376.97;143740;986;45010;-81
2021/11/30 07:29:04;;;;;;;;;;;;;;;17.10;40.41;100377.94;143738;976;46006;-80
2021/11/30 07:31:30;;;;;;;;;;;;;;;17.09;39.15;100384.44;143739;982;45936;-82
2021/11/30 07:34:00;;;;;;;;;;;;;;;17.16;40.33;100384.25;143741;984;46006;-81
2021/11/30 07:36:26;;;;;;;;;;;;;;;17.25;40.29;100390.88;143736;980;46006;-81
2021/11/30 07:38:52;;;;;;;;;;;;;;;17.34;39.81;100385.84;143738;980;47004;-81
2021/11/30 07:41:19;;;;;;;;;;;;;;;17.47;39.63;100391.97;143739;982;45938;-82
2021/11/30 07:43:46;;;;;;;;;;;;;;;17.58;39.82;100399.97;143740;966;46002;-80
2021/11/30 07:46:12;;;;;;;;;;;;;;;17.68;38.92;100403.91;143737;980;46012;-81
2021/11/30 07:48:39;;;;;;;;;;;;;;;17.75;38.29;100409.94;143739;980;46004;-82
2021/11/30 07:51:06;;;;;;;;;;;;;;;17.79;37.71;100419.22;143738;982;46010;-82
2021/11/30 07:53:32;;;;;;;;;;;;;;;17.85;37.16;100422.81;143740;984;46002;-82
2021/11/30 07:55:58;;;;;;;;;;;;;;;17.86;37.02;100425.28;143736;979;47012;-81
2021/11/30 07:58:25;;;;;;;;;;;;;;;17.95;36.57;100432.97;143740;980;45016;-81
2021/11/30 08:00:52;;;;;;;;;;;;;;;17.96;36.57;100443.59;143735;982;49011;-80
2021/11/30 08:03:20;;;;;;;;;;;;;;;18.04;36.15;100439.66;143740;984;46002;-81
2021/11/30 08:05:46;;;;;;;;;;;;;;;18.09;36.72;100447.81;143738;980;47012;-82
2021/11/30 08:08:12;;;;;;;;;;;;;;;18.35;36.46;100450.00;143738;980;46004;-82
2021/11/30 08:10:39;;;;;;;;;;;;;;;18.44;36.37;100457.41;143737;982;46010;-80
2021/11/30 08:13:05;;;;;;;;;;;;;;;18.48;36.61;100468.63;143742;984;45014;-83
2021/11/30 08:15:31;;;;;;;;;;;;;;;18.58;36.57;100473.34;143737;980;45936;-81
2021/11/30 08:17:58;;;;;;;;;;;;;;;18.72;36.56;100468.25;143739;979;45936;-81
2021/11/30 08:20:24;;;;;;;;;;;;;;;18.78;35.75;100478.13;143737;982;46010;-81
2021/11/30 08:22:50;;;;;;;;;;;;;;;18.81;35.31;100474.87;143742;984;45015;-83
2021/11/30 08:25:16;;;;;;;;;;;;;;;18.88;35.98;100471.94;143738;979;47012;-81
2021/11/30 08:27:43;;;;;;;;;;;;;;;19.03;36.04;100468.56;143740;980;45016;-80
2021/11/30 08:30:09;;;;;;;;;;;;;;;19.23;34.43;100476.84;143738;982;46010;-81
2021/11/30 08:32:37;;;;;;;;;;;;;;;19.46;33.36;100484.87;143740;983;47002;-80
2021/11/30 08:35:05;;;;;;;;;;;;;;;19.69;33.86;100486.34;143736;980;46012;-82
2021/11/30 08:37:32;;;;;;;;;;;;;;;19.90;32.02;100481.03;143739;980;46004;-80
2021/11/30 08:39:58;;;;;;;;;;;;;;;20.10;31.82;100481.09;143736;981;46010;-83
2021/11/30 08:42:24;;;;;;;;;;;;;;;20.15;30.40;100472.09;143740;984;46002;-82
2021/11/30 08:44:51;;;;;;;;;;;;;;;20.07;30.57;100468.00;143737;980;46013;-82
2021/11/30 08:47:19;;;;;;;;;;;;;;;19.93;30.88;100475.84;143739;979;45936;-81
2021/11/30 08:49:45;;;;;;;;;;;;;;;19.89;30.54;100484.81;143735;982;47006;-82
2021/11/30 08:52:14;;;;;;;;;;;;;;;19.90;31.21;100492.72;143742;984;45015;-83
2021/11/30 08:54:41;;;;;;;;;;;;;;;20.12;31.36;100497.97;143740;971;45029;-81
2021/11/30 08:57:07;;;;;;;;;;;;;;;20.21;29.41;100495.53;143739;980;45935;-81
2021/11/30 08:59:34;;;;;;;;;;;;;;;20.25;28.38;100507.56;143740;982;45015;-81
2021/11/30 09:02:01;;;;;;;;;;;;;;;20.23;29.37;100503.47;143742;983;45014;-80
2021/11/30 09:04:27;;;;;;;;;;;;;;;20.58;27.42;100510.09;143740;980;45012;-82
2021/11/30 09:06:53;;;;;;;;;;;;;;;23.84;23.53;100503.72;143735;968;50004;-81
2021/11/30 09:09:21;;;;;;;;;;;;;;;28.08;18.95;100496.78;143740;981;45014;-81
2021/11/30 09:11:47;;;;;;;;;;;;;;;28.11;18.03;100498.94;143728;984;50012;-81
2021/11/30 09:14:19;;;;;;;;;;;;;;;32.96;14.29;100511.91;143739;980;46012;-81
2021/11/30 09:16:45;;;;;;;;;;;;;;;34.59;12.85;100498.13;143736;978;47004;-81
2021/11/30 09:19:11;;;;;;;;;;;;;;;30.71;15.34;100497.75;143739;982;45014;-80
2021/11/30 09:21:37;;;;;;;;;;;;;;;31.85;14.59;100509.50;143727;984;55002;-83
2021/11/30 09:24:04;;;;;;;;;;;;;;;35.62;11.35;100528.28;143740;979;45013;-82
2021/11/30 09:26:30;;;;;;;;;;;;;;;37.88;9.40;100529.53;143730;980;49004;-82
2021/11/30 09:28:56;;;;;;;;;;;;;;;38.88;8.82;100524.75;143739;982;45015;-78
2021/11/30 09:31:23;;;;;;;;;;;;;;;37.04;10.66;100516.09;143740;983;46002;-81
2021/11/30 09:33:49;;;;;;;;;;;;;;;34.35;12.07;100513.19;143738;980;46012;-82
2021/11/30 09:36:16;;;;;;;;;;;;;;;32.57;13.40;100508.81;143738;980;46004;-80
2021/11/30 09:38:43;;;;;;;;;;;;;;;31.66;14.42;100507.28;143736;981;47010;-79
2021/11/30 09:41:09;;;;;;;;;;;;;;;31.34;14.80;100505.06;143734;984;50002;-80
2021/11/30 09:43:38;;;;;;;;;;;;;;;31.57;14.76;100510.16;143737;980;46012;-80
2021/11/30 09:46:04;;;;;;;;;;;;;;;31.88;14.39;100506.00;143736;979;47004;-79
2021/11/30 09:48:31;;;;;;;;;;;;;;;32.45;13.69;100504.16;143736;982;46010;-81
2021/11/30 09:50:58;;;;;;;;;;;;;;;33.31;13.77;100509.59;143739;984;47002;-80
2021/11/30 09:53:25;;;;;;;;;;;;;;;35.41;12.34;100514.75;143735;980;47012;-82
2021/11/30 09:55:52;;;;;;;;;;;;;;;39.70;8.95;100515.53;143726;980;48012;-79
2021/11/30 09:58:19;;;;;;;;;;;;;;;42.88;6.77;100531.03;143738;982;46010;-81
2021/11/30 10:00:47;;;;;;;;;;;;;;;45.03;5.55;100511.41;143741;983;46002;-81
2021/11/30 10:03:14;;;;;;;;;;;;;;;46.44;5.48;100502.66;143740;980;45012;-81
2021/11/30 10:05:40;;;;;;;;;;;;;;;47.34;5.03;100503.75;143738;980;47004;-80
2021/11/30 10:08:07;;;;;;;;;;;;;;;47.74;4.06;100491.00;143736;981;46011;-80
2021/11/30 10:10:36;;;;;;;;;;;;;;;47.59;3.84;100485.81;143741;984;46002;-80
2021/11/30 10:13:09;;;;;;;;;;;;;;;47.73;3.45;100490.19;143740;980;45012;-81
2021/11/30 10:15:55;;;;;;;;;;;;;;;48.03;3.06;100498.44;143737;979;47005;-82
2021/11/30 10:18:27;;;;;;;;;;;;;;;47.83;3.70;100502.41;143738;982;45938;-80
2021/11/30 10:20:55;;;;;;;;;;;;;;;47.23;4.54;100507.00;143742;984;45015;-80
2021/11/30 10:23:24;;;;;;;;;;;;;;;46.39;4.14;100508.84;143740;979;45013;-80
2021/11/30 10:25:51;;;;;;;;;;;;;;;46.46;3.47;100516.38;143740;980;45016;-80
2021/11/30 10:28:19;;;;;;;;;;;;;;;45.44;3.95;100507.13;143738;982;45938;-81
2021/11/30 10:30:48;;;;;;;;;;;;;;;41.69;6.34;100493.03;143736;983;48002;-82
2021/11/30 10:33:16;;;;;;;;;;;;;;;38.23;8.17;100494.47;143740;980;45012;-82
2021/11/30 10:35:43;;;;;;;;;;;;;;;36.45;9.29;100485.88;143738;980;47004;-83
2021/11/30 10:38:09;;;;;;;;;;;;;;;38.62;7.97;100490.22;143738;981;45938;-81
2021/11/30 10:40:38;;;;;;;;;;;;;;;41.26;6.85;100483.75;143741;984;46002;-81
2021/11/30 10:43:07;;;;;;;;;;;;;;;42.71;6.24;100488.50;143740;980;45012;-81
2021/11/30 10:45:35;;;;;;;;;;;;;;;42.23;6.20;100487.53;143740;977;45016;-80
2021/11/30 10:48:02;;;;;;;;;;;;;;;39.84;7.46;100494.22;143740;982;45014;-80
2021/11/30 10:50:32;;;;;;;;;;;;;;;37.20;8.91;100507.41;143741;984;46002;-81
2021/11/30 10:53:00;;;;;;;;;;;;;;;35.04;10.55;100496.59;143739;980;46012;-81
2021/11/30 10:55:27;;;;;;;;;;;;;;;33.88;12.06;100510.19;143739;980;46004;-81
2021/11/30 10:57:54;;;;;;;;;;;;;;;33.43;11.80;100505.94;143739;982;46010;-81
2021/11/30 11:00:29;;;;;;;;;;;;;;;32.72;12.71;100504.47;143742;984;45014;-82
2021/11/30 11:03:11;;;;;;;;;;;;;;;32.93;13.08;100511.81;143739;980;45012;-82
2021/11/30 11:05:41;;;;;;;;;;;;;;;33.31;12.78;100504.84;143740;980;45017;-82
2021/11/30 11:08:10;;;;;;;;;;;;;;;33.32;12.96;100502.84;143739;981;45938;-82
2021/11/30 11:10:37;;;;;;;;;;;;;;;32.25;14.00;100502.34;143738;984;47002;-81
2021/11/30 11:13:20;;;;;;;;;;;;;;;30.43;14.88;100506.62;143739;980;45936;-81
2021/11/30 11:15:47;;;;;;;;;;;;;;;29.59;15.81;100510.91;143742;979;46004;-81
2021/11/30 11:18:47;;;;;;;;;;;;;;;27.98;17.40;100500.69;143738;982;47010;-82
2021/11/30 11:21:39;;;;;;;;;;;;;;;26.38;19.09;100507.63;143735;984;50002;-81
2021/11/30 11:24:23;;;;;;;;;;;;;;;25.40;20.27;100511.22;143738;979;45936;-82
2021/11/30 11:26:56;;;;;;;;;;;;;;;25.02;20.46;100522.38;143739;980;46004;-83
2021/11/30 11:29:23;;;;;;;;;;;;;;;24.99;20.91;100514.72;143734;982;47006;-83
2021/11/30 11:31:51;;;;;;;;;;;;;;;25.26;21.41;100513.97;143742;984;45014;-83
2021/11/30 11:34:19;;;;;;;;;;;;;;;25.04;23.00;100517.38;143739;980;45936;-82
2021/11/30 11:36:48;;;;;;;;;;;;;;;24.31;24.40;100522.34;143732;980;46012;-82
2021/11/30 11:39:17;;;;;;;;;;;;;;;23.95;24.36;100536.50;143740;982;45938;-83
2021/11/30 11:41:45;;;;;;;;;;;;;;;24.12;23.37;100542.34;143743;984;45010;-81
2021/11/30 11:44:11;;;;;;;;;;;;;;;25.63;21.23;100549.88;143736;980;46013;-82
2021/11/30 11:46:48;;;;;;;;;;;;;;;26.00;21.09;100566.47;143739;979;46004;-84
2021/11/30 11:49:18;;;;;;;;;;;;;;;25.68;20.62;100570.97;143734;982;47010;-83
2021/11/30 11:51:46;;;;;;;;;;;;;;;25.68;20.73;100588.28;143741;984;46002;-84
2021/11/30 11:54:29;;;;;;;;;;;;;;;24.56;21.99;100587.03;143737;979;47012;-82
2021/11/30 11:56:56;;;;;;;;;;;;;;;23.13;24.78;100591.84;143739;980;45016;-82
2021/11/30 11:59:23;;;;;;;;;;;;;;;22.29;25.62;100589.09;143738;982;46938;-83
2021/11/30 12:01:50;;;;;;;;;;;;;;;23.01;25.32;100596.87;143743;983;45014;-83
2021/11/30 12:04:17;;;;;;;;;;;;;;;23.88;23.68;100589.81;143740;980;45012;-81
2021/11/30 12:07:06;;;;;;;;;;;;;;;24.60;22.41;100584.53;143739;980;45936;-82
2021/11/30 12:09:33;;;;;;;;;;;;;;;25.40;22.01;100584.66;143730;982;50006;-83
2021/11/30 12:12:15;;;;;;;;;;;;;;;25.91;20.82;100582.91;143739;984;47002;-83
2021/11/30 12:14:45;;;;;;;;;;;;;;;25.99;20.73;100584.94;143736;979;46013;-81
2021/11/30 12:17:29;;;;;;;;;;;;;;;25.65;21.48;100583.41;143740;980;45016;-81
2021/11/30 12:20:13;;;;;;;;;;;;;;;25.00;21.80;100576.00;143740;982;45010;-80
2021/11/30 12:22:47;;;;;;;;;;;;;;;24.40;21.65;100580.97;143742;983;45014;-79
2021/11/30 12:25:39;;;;;;;;;;;;;;;24.40;22.50;100591.12;143736;980;46012;-79
2021/11/30 12:28:09;;;;;;;;;;;;;;;24.22;22.13;100593.53;143740;980;46005;-81
2021/11/30 12:30:37;;;;;;;;;;;;;;;24.12;22.39;100593.69;143739;981;45938;-81
2021/11/30 12:33:05;;;;;;;;;;;;;;;23.77;22.85;100593.75;143740;984;47002;-81
2021/11/30 12:36:02;;;;;;;;;;;;;;;23.49;23.08;100604.47;143738;980;46013;-80
2021/11/30 12:38:32;;;;;;;;;;;;;;;23.14;23.26;100604.44;143740;979;45016;-82
2021/11/30 12:40:59;;;;;;;;;;;;;;;23.16;24.28;100606.91;143734;982;47002;-80
2021/11/30 12:43:28;;;;;;;;;;;;;;;23.04;25.46;100626.47;143734;984;48015;-80
2021/11/30 12:45:56;;;;;;;;;;;;;;;22.89;26.33;100627.37;143729;979;50006;-81
2021/11/30 12:48:24;;;;;;;;;;;;;;;22.73;26.59;100631.31;143729;980;52004;-80
2021/11/30 12:50:59;;;;;;;;;;;;;;;22.46;27.53;100651.72;143739;982;45015;-81